Preview of NWS' New Version of Forecast
This preview is not operational and should not be used for support decisions.

Terminal Aerodrome Forecast (TAF)

Issued by National Weather Service (NWS)

                            
574 
FTUS42 KKEY 200900 AAA
TAFMTH
TAF AMD
KMTH 200900Z 2009/2106 11012G23KT P6SM VCSH SCT025 OVC050
      TEMPO 2009/2011 BKN025
     FM201500 12012G22KT P6SM FEW025 SCT045=